Time;durP1;ratioP1;P1;durP2;ratioP2;P2;SDS_P1;SDS_P2;PMS_P1;PMS_P2;Temp;Humidity;BMP_temperature;BMP_pressure;BME280_temperature;BME280_humidity;BME280_pressure;Samples;Min_cycle;Max_cycle;Signal;HPM_P1;HPM_P2
2023/05/27 00:02:25;;;;;;;;;;;;;;;;;;4437294;32;20276;-69
2023/05/27 00:04:50;;;;;;;;;;;;;;;;;;4438533;32;19980;-69
2023/05/27 00:07:16;;;;;;;;;;;;;;;;;;4437509;32;19937;-69
2023/05/27 00:09:41;;;;;;;;;;;;;;;;;;4436294;32;19936;-69
2023/05/27 00:12:06;;;;;;;;;;;;;;;;;;4438021;32;19967;-69
2023/05/27 00:14:31;;;;;;;;;;;;;;;;;;4437726;32;19990;-69
2023/05/27 00:16:56;;;;;;;;;;;;;;;;;;4437676;32;20295;-70
2023/05/27 00:19:21;;;;;;;;;;;;;;;;;;4436420;32;20375;-70
2023/05/27 00:21:46;;;;;;;;;;;;;;;;;;4437151;32;19951;-70
2023/05/27 00:24:12;;;;;;;;;;;;;;;;;;4437768;32;19968;-69
2023/05/27 00:26:38;;;;;;;;;;;;;;;;;;4438193;32;19988;-69
2023/05/27 00:29:03;;;;;;;;;;;;;;;;;;4436114;32;20008;-69
2023/05/27 00:31:29;;;;;;;;;;;;;;;;;;4436454;32;19940;-69
2023/05/27 00:33:54;;;;;;;;;;;;;;;;;;4435806;32;19978;-69
2023/05/27 00:36:19;;;;;;;;;;;;;;;;;;4437821;32;19932;-69
2023/05/27 00:38:44;;;;;;;;;;;;;;;;;;4437981;32;19968;-70
2023/05/27 00:41:09;;;;;;;;;;;;;;;;;;4437921;32;20282;-70
2023/05/27 00:43:34;;;;;;;;;;;;;;;;;;4435931;32;20347;-70
2023/05/27 00:46:00;;;;;;;;;;;;;;;;;;4437707;32;19989;-70
2023/05/27 00:48:25;;;;;;;;;;;;;;;;;;4437304;32;20332;-70
2023/05/27 00:50:50;;;;;;;;;;;;;;;;;;4435880;32;19943;-71
2023/05/27 00:53:15;;;;;;;;;;;;;;;;;;4437395;32;20317;-69
2023/05/27 00:55:40;;;;;;;;;;;;;;;;;;4437180;32;20256;-69
2023/05/27 00:58:07;;;;;;;;;;;;;;;;;;4435604;32;19992;-69
2023/05/27 01:00:32;;;;;;;;;;;;;;;;;;4435994;32;19977;-69
2023/05/27 01:02:57;;;;;;;;;;;;;;;;;;4438137;32;19941;-69
2023/05/27 01:05:22;;;;;;;;;;;;;;;;;;4437530;32;19980;-70
2023/05/27 01:07:48;;;;;;;;;;;;;;;;;;4436765;32;19956;-69
2023/05/27 01:10:13;;;;;;;;;;;;;;;;;;4435643;32;19937;-70
2023/05/27 01:12:38;;;;;;;;;;;;;;;;;;4436819;32;20351;-69
2023/05/27 01:15:03;;;;;;;;;;;;;;;;;;4435543;32;20011;-69
2023/05/27 01:17:28;;;;;;;;;;;;;;;;;;4436671;32;19940;-70
2023/05/27 01:19:53;;;;;;;;;;;;;;;;;;4435766;32;20318;-70
2023/05/27 01:22:18;;;;;;;;;;;;;;;;;;4437717;32;19990;-70
2023/05/27 01:24:43;;;;;;;;;;;;;;;;;;4435821;32;19932;-69
2023/05/27 01:27:08;;;;;;;;;;;;;;;;;;4436474;32;19984;-70
2023/05/27 01:29:33;;;;;;;;;;;;;;;;;;4437072;32;19968;-70
2023/05/27 01:31:59;;;;;;;;;;;;;;;;;;4435906;32;19950;-70
2023/05/27 01:34:24;;;;;;;;;;;;;;;;;;4434828;32;19945;-70
2023/05/27 01:36:49;;;;;;;;;;;;;;;;;;4435921;32;19980;-70
2023/05/27 01:39:15;;;;;;;;;;;;;;;;;;4437288;32;20019;-70
2023/05/27 01:41:40;;;;;;;;;;;;;;;;;;4436974;32;19937;-71
2023/05/27 01:44:05;;;;;;;;;;;;;;;;;;4436274;32;19937;-70
2023/05/27 01:46:30;;;;;;;;;;;;;;;;;;4435423;32;19937;-70
2023/05/27 01:48:55;;;;;;;;;;;;;;;;;;4435931;32;19936;-70
2023/05/27 01:51:20;;;;;;;;;;;;;;;;;;4434960;32;19970;-69
2023/05/27 01:53:45;;;;;;;;;;;;;;;;;;4434855;32;19952;-69
2023/05/27 01:56:10;;;;;;;;;;;;;;;;;;4436160;32;19933;-70
2023/05/27 01:58:36;;;;;;;;;;;;;;;;;;4434926;32;19969;-70
2023/05/27 02:01:01;;;;;;;;;;;;;;;;;;4435161;32;20039;-69
2023/05/27 02:03:26;;;;;;;;;;;;;;;;;;4436202;32;19933;-69
2023/05/27 02:05:52;;;;;;;;;;;;;;;;;;4435942;32;20315;-70
2023/05/27 02:08:17;;;;;;;;;;;;;;;;;;4434412;32;19941;-70
2023/05/27 02:10:42;;;;;;;;;;;;;;;;;;4435396;32;19956;-69
2023/05/27 02:13:07;;;;;;;;;;;;;;;;;;4434768;32;19974;-70
2023/05/27 02:15:32;;;;;;;;;;;;;;;;;;4436241;32;20302;-69
2023/05/27 02:17:58;;;;;;;;;;;;;;;;;;4434900;32;19944;-69
2023/05/27 02:20:23;;;;;;;;;;;;;;;;;;4434757;32;19933;-70
2023/05/27 02:22:49;;;;;;;;;;;;;;;;;;4436421;32;20343;-70
2023/05/27 02:25:14;;;;;;;;;;;;;;;;;;4436454;32;19998;-70
2023/05/27 02:27:41;;;;;;;;;;;;;;;;;;4436479;32;19932;-69
2023/05/27 02:30:06;;;;;;;;;;;;;;;;;;4436546;32;19944;-69
2023/05/27 02:32:32;;;;;;;;;;;;;;;;;;4435846;32;19932;-70
2023/05/27 02:34:57;;;;;;;;;;;;;;;;;;4434461;32;19964;-69
2023/05/27 02:37:24;;;;;;;;;;;;;;;;;;4434571;32;20002;-69
2023/05/27 02:39:49;;;;;;;;;;;;;;;;;;4436192;32;19937;-69
2023/05/27 02:42:14;;;;;;;;;;;;;;;;;;4436613;32;19952;-69
2023/05/27 02:44:39;;;;;;;;;;;;;;;;;;4436445;32;20406;-69
2023/05/27 02:47:05;;;;;;;;;;;;;;;;;;4436018;32;20374;-68
2023/05/27 02:49:30;;;;;;;;;;;;;;;;;;4436031;32;19936;-69
2023/05/27 02:51:55;;;;;;;;;;;;;;;;;;4441146;32;19940;-68
2023/05/27 02:54:20;;;;;;;;;;;;;;;;;;4450170;32;19941;-69
2023/05/27 02:56:45;;;;;;;;;;;;;;;;;;4451409;32;19933;-70
2023/05/27 02:59:10;;;;;;;;;;;;;;;;;;4449796;32;19933;-70
2023/05/27 03:01:35;;;;;;;;;;;;;;;;;;4450093;32;19991;-69
2023/05/27 03:04:00;;;;;;;;;;;;;;;;;;4451130;32;20318;-69
2023/05/27 03:06:25;;;;;;;;;;;;;;;;;;4434646;32;20379;-68
2023/05/27 03:08:51;;;;;;;;;;;;;;;;;;4435992;32;19997;-69
2023/05/27 03:11:16;;;;;;;;;;;;;;;;;;4434188;32;20309;-69
2023/05/27 03:13:41;;;;;;;;;;;;;;;;;;4434856;32;19966;-69
2023/05/27 03:16:06;;;;;;;;;;;;;;;;;;4435876;32;19936;-69
2023/05/27 03:18:31;;;;;;;;;;;;;;;;;;4434947;32;19947;-70
2023/05/27 03:20:56;;;;;;;;;;;;;;;;;;4434740;32;19937;-70
2023/05/27 03:23:21;;;;;;;;;;;;;;;;;;4433879;32;19944;-69
2023/05/27 03:25:46;;;;;;;;;;;;;;;;;;4435424;32;19992;-69
2023/05/27 03:28:11;;;;;;;;;;;;;;;;;;4434843;32;20364;-70
2023/05/27 03:30:38;;;;;;;;;;;;;;;;;;4434555;32;20370;-69
2023/05/27 03:33:03;;;;;;;;;;;;;;;;;;4434302;32;19937;-69
2023/05/27 03:35:28;;;;;;;;;;;;;;;;;;4434767;32;19985;-69
2023/05/27 03:37:53;;;;;;;;;;;;;;;;;;4434267;32;20340;-70
2023/05/27 03:40:18;;;;;;;;;;;;;;;;;;4434017;32;19942;-69
2023/05/27 03:42:43;;;;;;;;;;;;;;;;;;4435979;32;20001;-69
2023/05/27 03:45:08;;;;;;;;;;;;;;;;;;4436023;32;19970;-70
2023/05/27 03:47:34;;;;;;;;;;;;;;;;;;4435668;32;19932;-69
2023/05/27 03:49:59;;;;;;;;;;;;;;;;;;4434281;32;19943;-69
2023/05/27 03:52:24;;;;;;;;;;;;;;;;;;4435328;32;20024;-70
2023/05/27 03:54:49;;;;;;;;;;;;;;;;;;4434473;32;19963;-69
2023/05/27 03:57:15;;;;;;;;;;;;;;;;;;4436240;32;19951;-70
2023/05/27 03:59:41;;;;;;;;;;;;;;;;;;4438427;32;19947;-70
2023/05/27 04:02:06;;;;;;;;;;;;;;;;;;4438283;32;20357;-70
2023/05/27 04:04:31;;;;;;;;;;;;;;;;;;4437734;32;20270;-70
2023/05/27 04:06:56;;;;;;;;;;;;;;;;;;4438192;32;19937;-70
2023/05/27 04:09:21;;;;;;;;;;;;;;;;;;4436331;32;19944;-69
2023/05/27 04:11:46;;;;;;;;;;;;;;;;;;4438345;32;19932;-69
2023/05/27 04:14:12;;;;;;;;;;;;;;;;;;4438026;32;20000;-70
2023/05/27 04:16:37;;;;;;;;;;;;;;;;;;4438732;32;19947;-70
2023/05/27 04:19:02;;;;;;;;;;;;;;;;;;4438087;32;19997;-70
2023/05/27 04:21:27;;;;;;;;;;;;;;;;;;4438032;32;19937;-70
2023/05/27 04:23:52;;;;;;;;;;;;;;;;;;4436247;32;19948;-69
2023/05/27 04:26:18;;;;;;;;;;;;;;;;;;4436764;32;19976;-69
2023/05/27 04:28:45;;;;;;;;;;;;;;;;;;4437755;32;19941;-69
2023/05/27 04:31:15;;;;;;;;;;;;;;;;;;4437906;32;19953;-69
2023/05/27 04:33:40;;;;;;;;;;;;;;;;;;4437802;32;19996;-68
2023/05/27 04:36:05;;;;;;;;;;;;;;;;;;4437759;32;19937;-68
2023/05/27 04:38:31;;;;;;;;;;;;;;;;;;4436110;32;19956;-70
2023/05/27 04:40:56;;;;;;;;;;;;;;;;;;4437193;32;19984;-70
2023/05/27 04:43:21;;;;;;;;;;;;;;;;;;4436205;32;19941;-69
2023/05/27 04:45:46;;;;;;;;;;;;;;;;;;4437114;32;19937;-70
2023/05/27 04:48:11;;;;;;;;;;;;;;;;;;4437339;32;20313;-70
2023/05/27 04:50:37;;;;;;;;;;;;;;;;;;4436144;32;19946;-69
2023/05/27 04:53:02;;;;;;;;;;;;;;;;;;4436207;32;20062;-68
2023/05/27 04:55:28;;;;;;;;;;;;;;;;;;4436435;32;19988;-70
2023/05/27 04:57:53;;;;;;;;;;;;;;;;;;4437508;32;19936;-70
2023/05/27 05:00:18;;;;;;;;;;;;;;;;;;4437102;32;19996;-69
2023/05/27 05:02:47;;;;;;;;;;;;;;;;;;4437439;32;19976;-69
2023/05/27 05:05:12;;;;;;;;;;;;;;;;;;4436309;32;19937;-69
2023/05/27 05:07:41;;;;;;;;;;;;;;;;;;4434747;32;19999;-69
2023/05/27 05:10:06;;;;;;;;;;;;;;;;;;4437546;32;20004;-70
2023/05/27 05:12:31;;;;;;;;;;;;;;;;;;4434624;32;19945;-70
2023/05/27 05:14:56;;;;;;;;;;;;;;;;;;4435645;32;19941;-70
2023/05/27 05:17:24;;;;;;;;;;;;;;;;;;4435569;32;19963;-68
2023/05/27 05:19:49;;;;;;;;;;;;;;;;;;4436742;32;19937;-69
2023/05/27 05:22:14;;;;;;;;;;;;;;;;;;4435965;32;19936;-69
2023/05/27 05:24:39;;;;;;;;;;;;;;;;;;4436500;32;19933;-70
2023/05/27 05:27:06;;;;;;;;;;;;;;;;;;4436118;32;20318;-70
2023/05/27 05:29:31;;;;;;;;;;;;;;;;;;4436569;32;20321;-69
2023/05/27 05:31:56;;;;;;;;;;;;;;;;;;4433601;32;20333;-70
2023/05/27 05:34:21;;;;;;;;;;;;;;;;;;4435151;32;19945;-69
2023/05/27 05:36:46;;;;;;;;;;;;;;;;;;4434577;32;20010;-70
2023/05/27 05:39:11;;;;;;;;;;;;;;;;;;4435834;32;19937;-69
2023/05/27 05:41:36;;;;;;;;;;;;;;;;;;4433776;32;19973;-69
2023/05/27 05:44:02;;;;;;;;;;;;;;;;;;4435139;32;19944;-70
2023/05/27 05:46:27;;;;;;;;;;;;;;;;;;4435528;32;19978;-70
2023/05/27 05:48:52;;;;;;;;;;;;;;;;;;4436797;32;19945;-69
2023/05/27 05:51:17;;;;;;;;;;;;;;;;;;4435831;32;19947;-69
2023/05/27 05:53:42;;;;;;;;;;;;;;;;;;4436337;32;19932;-70
2023/05/27 05:56:07;;;;;;;;;;;;;;;;;;4436236;32;19944;-69
2023/05/27 05:58:32;;;;;;;;;;;;;;;;;;4434433;32;19937;-69
2023/05/27 06:00:58;;;;;;;;;;;;;;;;;;4436577;32;20294;-70
2023/05/27 06:03:23;;;;;;;;;;;;;;;;;;4435336;32;19995;-70
2023/05/27 06:05:48;;;;;;;;;;;;;;;;;;4434828;32;19932;-70
2023/05/27 06:08:13;;;;;;;;;;;;;;;;;;4436024;32;19951;-70
2023/05/27 06:10:39;;;;;;;;;;;;;;;;;;4435913;32;19992;-70
2023/05/27 06:13:04;;;;;;;;;;;;;;;;;;4434063;32;19972;-70
2023/05/27 06:15:30;;;;;;;;;;;;;;;;;;4435878;32;20306;-69
2023/05/27 06:17:55;;;;;;;;;;;;;;;;;;4434473;32;20072;-70
2023/05/27 06:20:20;;;;;;;;;;;;;;;;;;4433439;32;20368;-69
2023/05/27 06:22:49;;;;;;;;;;;;;;;;;;4434273;32;19936;-69
2023/05/27 06:25:15;;;;;;;;;;;;;;;;;;4434402;32;20421;-69
2023/05/27 06:27:40;;;;;;;;;;;;;;;;;;4435834;32;20220;-70
2023/05/27 06:30:06;;;;;;;;;;;;;;;;;;4435813;32;20272;-70
2023/05/27 06:32:31;;;;;;;;;;;;;;;;;;4433899;32;20293;-70
2023/05/27 06:34:56;;;;;;;;;;;;;;;;;;4433705;32;20375;-71
2023/05/27 06:37:21;;;;;;;;;;;;;;;;;;4435794;32;19948;-69
2023/05/27 06:39:46;;;;;;;;;;;;;;;;;;4434199;32;19937;-69
2023/05/27 06:42:11;;;;;;;;;;;;;;;;;;4434684;32;19951;-69
2023/05/27 06:44:36;;;;;;;;;;;;;;;;;;4435537;32;19940;-69
2023/05/27 06:47:01;;;;;;;;;;;;;;;;;;4434428;32;20298;-69
2023/05/27 06:49:26;;;;;;;;;;;;;;;;;;4435296;32;19933;-69
2023/05/27 06:51:52;;;;;;;;;;;;;;;;;;4434461;32;19947;-70
2023/05/27 06:54:17;;;;;;;;;;;;;;;;;;4433789;32;19940;-69
2023/05/27 06:56:42;;;;;;;;;;;;;;;;;;4435448;32;19933;-69
2023/05/27 06:59:07;;;;;;;;;;;;;;;;;;4435345;32;19947;-69
2023/05/27 07:01:32;;;;;;;;;;;;;;;;;;4435030;32;19996;-69
2023/05/27 07:03:57;;;;;;;;;;;;;;;;;;4434158;32;20254;-69
2023/05/27 07:06:22;;;;;;;;;;;;;;;;;;4435029;32;19963;-70
2023/05/27 07:08:48;;;;;;;;;;;;;;;;;;4434036;32;19937;-70
2023/05/27 07:11:13;;;;;;;;;;;;;;;;;;4434521;32;20363;-70
2023/05/27 07:13:38;;;;;;;;;;;;;;;;;;4434973;32;19978;-69
2023/05/27 07:16:03;;;;;;;;;;;;;;;;;;4435302;32;19937;-69
2023/05/27 07:18:28;;;;;;;;;;;;;;;;;;4433735;32;19959;-70
2023/05/27 07:20:53;;;;;;;;;;;;;;;;;;4434104;32;19995;-71
2023/05/27 07:23:18;;;;;;;;;;;;;;;;;;4434927;32;19989;-70
2023/05/27 07:25:44;;;;;;;;;;;;;;;;;;4435211;32;19952;-69
2023/05/27 07:28:09;;;;;;;;;;;;;;;;;;4436012;32;19937;-69
2023/05/27 07:30:34;;;;;;;;;;;;;;;;;;4434053;32;19970;-70
2023/05/27 07:32:59;;;;;;;;;;;;;;;;;;4438284;32;19944;-70
2023/05/27 07:35:24;;;;;;;;;;;;;;;;;;4437216;32;19944;-70
2023/05/27 07:37:49;;;;;;;;;;;;;;;;;;4438174;32;20266;-70
2023/05/27 07:40:14;;;;;;;;;;;;;;;;;;4439172;32;19948;-70
2023/05/27 07:42:39;;;;;;;;;;;;;;;;;;4438109;32;19979;-70
2023/05/27 07:45:05;;;;;;;;;;;;;;;;;;4437658;32;19972;-69
2023/05/27 07:47:30;;;;;;;;;;;;;;;;;;4437073;32;20052;-69
2023/05/27 07:49:55;;;;;;;;;;;;;;;;;;4438454;32;20031;-70
2023/05/27 07:52:20;;;;;;;;;;;;;;;;;;4437635;32;19936;-69
2023/05/27 07:54:45;;;;;;;;;;;;;;;;;;4438061;32;19937;-69
2023/05/27 07:57:10;;;;;;;;;;;;;;;;;;4437320;32;19984;-68
2023/05/27 07:59:35;;;;;;;;;;;;;;;;;;4437736;32;19948;-69
2023/05/27 08:02:00;;;;;;;;;;;;;;;;;;4436232;32;20003;-69
2023/05/27 08:04:25;;;;;;;;;;;;;;;;;;4438232;32;19932;-68
2023/05/27 08:06:51;;;;;;;;;;;;;;;;;;4436531;32;19940;-69
2023/05/27 08:09:16;;;;;;;;;;;;;;;;;;4437982;32;19947;-69
2023/05/27 08:11:41;;;;;;;;;;;;;;;;;;4436517;32;19967;-69
2023/05/27 08:14:06;;;;;;;;;;;;;;;;;;4436954;32;19967;-70
2023/05/27 08:16:31;;;;;;;;;;;;;;;;;;4437826;32;19943;-70
2023/05/27 08:18:56;;;;;;;;;;;;;;;;;;4437200;32;19992;-69
2023/05/27 08:21:21;;;;;;;;;;;;;;;;;;4437008;32;19997;-69
2023/05/27 08:23:47;;;;;;;;;;;;;;;;;;4437218;32;20352;-68
2023/05/27 08:26:12;;;;;;;;;;;;;;;;;;4437431;32;19943;-68
2023/05/27 08:28:37;;;;;;;;;;;;;;;;;;4435989;32;19975;-70
2023/05/27 08:31:02;;;;;;;;;;;;;;;;;;4435851;32;20231;-69
2023/05/27 08:33:27;;;;;;;;;;;;;;;;;;4437349;32;20328;-69
2023/05/27 08:35:52;;;;;;;;;;;;;;;;;;4438246;32;19971;-71
2023/05/27 08:38:17;;;;;;;;;;;;;;;;;;4436973;32;19951;-70
2023/05/27 08:40:42;;;;;;;;;;;;;;;;;;4437029;32;19947;-70
2023/05/27 08:43:08;;;;;;;;;;;;;;;;;;4435861;32;20235;-70
2023/05/27 08:45:33;;;;;;;;;;;;;;;;;;4437882;32;19932;-70
2023/05/27 08:47:58;;;;;;;;;;;;;;;;;;4435956;32;20034;-69
2023/05/27 08:50:23;;;;;;;;;;;;;;;;;;4435950;32;20013;-69
2023/05/27 08:52:48;;;;;;;;;;;;;;;;;;4436465;32;20270;-71
2023/05/27 08:55:13;;;;;;;;;;;;;;;;;;4436883;32;20231;-70
2023/05/27 08:57:39;;;;;;;;;;;;;;;;;;4435407;32;20383;-68
2023/05/27 09:00:11;;;;;;;;;;;;;;;;;;4438143;32;19955;-69
2023/05/27 09:02:36;;;;;;;;;;;;;;;;;;4435438;32;20277;-69
2023/05/27 09:05:01;;;;;;;;;;;;;;;;;;4437151;32;20266;-69
2023/05/27 09:07:26;;;;;;;;;;;;;;;;;;4437192;32;19932;-70
2023/05/27 09:09:51;;;;;;;;;;;;;;;;;;4436554;32;19944;-69
2023/05/27 09:12:16;;;;;;;;;;;;;;;;;;4436687;32;19937;-69
2023/05/27 09:14:43;;;;;;;;;;;;;;;;;;4435473;32;19951;-69
2023/05/27 09:17:09;;;;;;;;;;;;;;;;;;4435206;32;19933;-69
2023/05/27 09:19:34;;;;;;;;;;;;;;;;;;4435147;32;19964;-69
2023/05/27 09:21:59;;;;;;;;;;;;;;;;;;4436801;32;19937;-67
2023/05/27 09:24:24;;;;;;;;;;;;;;;;;;4435094;32;19945;-69
2023/05/27 09:26:50;;;;;;;;;;;;;;;;;;4435155;32;19936;-69
2023/05/27 09:29:15;;;;;;;;;;;;;;;;;;4435527;32;20037;-69
2023/05/27 09:31:40;;;;;;;;;;;;;;;;;;4435404;32;19948;-69
2023/05/27 09:34:05;;;;;;;;;;;;;;;;;;4437892;32;19941;-69
2023/05/27 09:36:31;;;;;;;;;;;;;;;;;;4436407;32;19941;-68
2023/05/27 09:38:59;;;;;;;;;;;;;;;;;;4436473;32;20674;-69
2023/05/27 09:41:26;;;;;;;;;;;;;;;;;;4436728;32;19941;-70
2023/05/27 09:43:51;;;;;;;;;;;;;;;;;;4434754;32;19928;-69
2023/05/27 09:46:16;;;;;;;;;;;;;;;;;;4436689;32;19992;-68
2023/05/27 09:48:42;;;;;;;;;;;;;;;;;;4435948;32;19937;-71
2023/05/27 09:51:07;;;;;;;;;;;;;;;;;;4436057;32;19940;-71
2023/05/27 09:53:32;;;;;;;;;;;;;;;;;;4433653;32;20235;-70
2023/05/27 09:55:57;;;;;;;;;;;;;;;;;;4434428;32;19952;-71
2023/05/27 09:58:22;;;;;;;;;;;;;;;;;;4436460;32;19965;-70
2023/05/27 10:00:47;;;;;;;;;;;;;;;;;;4434640;32;19948;-71
2023/05/27 10:03:13;;;;;;;;;;;;;;;;;;4437729;32;19996;-71
2023/05/27 10:05:38;;;;;;;;;;;;;;;;;;4436249;32;19933;-71
2023/05/27 10:08:04;;;;;;;;;;;;;;;;;;4435608;32;19963;-71
2023/05/27 10:10:29;;;;;;;;;;;;;;;;;;4437115;32;19933;-70
2023/05/27 10:12:54;;;;;;;;;;;;;;;;;;4437793;32;19933;-70
2023/05/27 10:15:19;;;;;;;;;;;;;;;;;;4437187;32;19949;-71
2023/05/27 10:17:44;;;;;;;;;;;;;;;;;;4435436;32;20351;-70
2023/05/27 10:20:10;;;;;;;;;;;;;;;;;;4435646;32;20089;-70
2023/05/27 10:22:35;;;;;;;;;;;;;;;;;;4437270;32;19952;-71
2023/05/27 10:25:00;;;;;;;;;;;;;;;;;;4434793;32;19937;-70
2023/05/27 10:27:25;;;;;;;;;;;;;;;;;;4435568;32;19992;-70
2023/05/27 10:29:50;;;;;;;;;;;;;;;;;;4434425;32;19971;-71
2023/05/27 10:32:15;;;;;;;;;;;;;;;;;;4435678;32;19949;-70
2023/05/27 10:34:40;;;;;;;;;;;;;;;;;;4437256;32;20353;-69
2023/05/27 10:37:06;;;;;;;;;;;;;;;;;;4435618;32;19984;-70
2023/05/27 10:39:32;;;;;;;;;;;;;;;;;;4436360;32;19937;-71
2023/05/27 10:41:57;;;;;;;;;;;;;;;;;;4435156;32;19945;-70
2023/05/27 10:44:22;;;;;;;;;;;;;;;;;;4435263;32;20342;-71
2023/05/27 10:46:47;;;;;;;;;;;;;;;;;;4435492;32;19982;-69
2023/05/27 10:49:12;;;;;;;;;;;;;;;;;;4436198;32;19936;-69
2023/05/27 10:51:37;;;;;;;;;;;;;;;;;;4435774;32;19936;-69
2023/05/27 10:54:03;;;;;;;;;;;;;;;;;;4435091;32;20227;-70
2023/05/27 10:56:28;;;;;;;;;;;;;;;;;;4436016;32;20324;-69
2023/05/27 10:58:53;;;;;;;;;;;;;;;;;;4435303;32;20332;-72
2023/05/27 11:01:18;;;;;;;;;;;;;;;;;;4434064;32;19941;-71
2023/05/27 11:03:44;;;;;;;;;;;;;;;;;;4435377;32;19937;-71
2023/05/27 11:06:09;;;;;;;;;;;;;;;;;;4435539;32;19933;-71
2023/05/27 11:08:34;;;;;;;;;;;;;;;;;;4438494;32;20012;-71
2023/05/27 11:10:59;;;;;;;;;;;;;;;;;;4438664;32;19964;-72
2023/05/27 11:13:25;;;;;;;;;;;;;;;;;;4438613;32;19958;-72
2023/05/27 11:15:50;;;;;;;;;;;;;;;;;;4438239;32;20278;-71
2023/05/27 11:18:16;;;;;;;;;;;;;;;;;;4437038;32;20020;-71
2023/05/27 11:20:41;;;;;;;;;;;;;;;;;;4437897;32;19949;-71
2023/05/27 11:23:06;;;;;;;;;;;;;;;;;;4437062;32;20348;-71
2023/05/27 11:25:31;;;;;;;;;;;;;;;;;;4438357;32;19993;-69
2023/05/27 11:27:56;;;;;;;;;;;;;;;;;;4438380;32;20348;-72
2023/05/27 11:30:21;;;;;;;;;;;;;;;;;;4437371;32;20389;-73
2023/05/27 11:32:46;;;;;;;;;;;;;;;;;;4438448;32;20251;-73
2023/05/27 11:35:12;;;;;;;;;;;;;;;;;;4438469;32;19956;-72
2023/05/27 11:37:37;;;;;;;;;;;;;;;;;;4437789;32;19990;-72
2023/05/27 11:40:02;;;;;;;;;;;;;;;;;;4436612;32;19933;-75
2023/05/27 11:42:27;;;;;;;;;;;;;;;;;;4436800;32;19945;-72
2023/05/27 11:44:53;;;;;;;;;;;;;;;;;;4438563;32;19936;-72
2023/05/27 11:47:18;;;;;;;;;;;;;;;;;;4437263;32;19971;-72
2023/05/27 11:49:43;;;;;;;;;;;;;;;;;;4436131;32;20296;-72
2023/05/27 11:52:09;;;;;;;;;;;;;;;;;;4437492;32;19933;-72
2023/05/27 11:54:34;;;;;;;;;;;;;;;;;;4437227;32;20423;-73
2023/05/27 11:57:00;;;;;;;;;;;;;;;;;;4437410;32;19989;-72
2023/05/27 11:59:25;;;;;;;;;;;;;;;;;;4438388;32;20265;-72
2023/05/27 12:01:51;;;;;;;;;;;;;;;;;;4437150;32;20000;-73
2023/05/27 12:04:16;;;;;;;;;;;;;;;;;;4435861;32;19928;-73
2023/05/27 12:06:41;;;;;;;;;;;;;;;;;;4438753;32;19944;-73
2023/05/27 12:09:06;;;;;;;;;;;;;;;;;;4437677;32;19944;-74
2023/05/27 12:11:31;;;;;;;;;;;;;;;;;;4436529;32;19975;-72
2023/05/27 12:13:57;;;;;;;;;;;;;;;;;;4437247;32;19928;-72
2023/05/27 12:16:22;;;;;;;;;;;;;;;;;;4436579;32;19970;-72
2023/05/27 12:18:47;;;;;;;;;;;;;;;;;;4435514;32;19977;-72
2023/05/27 12:21:12;;;;;;;;;;;;;;;;;;4438157;32;19941;-72
2023/05/27 12:23:37;;;;;;;;;;;;;;;;;;4435986;32;19941;-73
2023/05/27 12:26:02;;;;;;;;;;;;;;;;;;4436818;32;19933;-72
2023/05/27 12:28:27;;;;;;;;;;;;;;;;;;4437938;32;19947;-73
2023/05/27 12:30:52;;;;;;;;;;;;;;;;;;4436570;32;20015;-73
2023/05/27 12:33:17;;;;;;;;;;;;;;;;;;4436468;32;19953;-73
2023/05/27 12:35:43;;;;;;;;;;;;;;;;;;4438063;32;20265;-73
2023/05/27 12:38:08;;;;;;;;;;;;;;;;;;4436633;32;19963;-72
2023/05/27 12:40:33;;;;;;;;;;;;;;;;;;4437938;32;19937;-72
2023/05/27 12:42:58;;;;;;;;;;;;;;;;;;4436982;32;19987;-72
2023/05/27 12:45:25;;;;;;;;;;;;;;;;;;4437609;32;19940;-71
2023/05/27 12:47:50;;;;;;;;;;;;;;;;;;4435192;32;20011;-73
2023/05/27 12:50:16;;;;;;;;;;;;;;;;;;4436139;32;19993;-73
2023/05/27 12:52:46;;;;;;;;;;;;;;;;;;4437473;32;20269;-73
2023/05/27 12:55:11;;;;;;;;;;;;;;;;;;4435595;32;19987;-72
2023/05/27 12:57:36;;;;;;;;;;;;;;;;;;4437764;32;19933;-72
2023/05/27 13:00:01;;;;;;;;;;;;;;;;;;4435810;32;19969;-71
2023/05/27 13:02:27;;;;;;;;;;;;;;;;;;4437782;32;19984;-73
2023/05/27 13:04:52;;;;;;;;;;;;;;;;;;4436864;32;19977;-72
2023/05/27 13:07:17;;;;;;;;;;;;;;;;;;4436580;32;19988;-72
2023/05/27 13:09:42;;;;;;;;;;;;;;;;;;4437732;32;19949;-73
2023/05/27 13:12:07;;;;;;;;;;;;;;;;;;4437633;32;19956;-73
2023/05/27 13:14:32;;;;;;;;;;;;;;;;;;4435817;32;19974;-72
2023/05/27 13:16:58;;;;;;;;;;;;;;;;;;4435181;32;19973;-73
2023/05/27 13:19:23;;;;;;;;;;;;;;;;;;4436969;32;19944;-71
2023/05/27 13:21:48;;;;;;;;;;;;;;;;;;4435362;32;19969;-72
2023/05/27 13:24:13;;;;;;;;;;;;;;;;;;4438321;32;19946;-72
2023/05/27 13:26:39;;;;;;;;;;;;;;;;;;4436262;32;19934;-72
2023/05/27 13:29:04;;;;;;;;;;;;;;;;;;4436783;32;19973;-72
2023/05/27 13:31:29;;;;;;;;;;;;;;;;;;4437045;32;20100;-71
2023/05/27 13:33:54;;;;;;;;;;;;;;;;;;4434761;32;19951;-72
2023/05/27 13:36:19;;;;;;;;;;;;;;;;;;4434998;32;19941;-71
2023/05/27 13:38:44;;;;;;;;;;;;;;;;;;4437548;32;19949;-72
2023/05/27 13:41:09;;;;;;;;;;;;;;;;;;4436301;32;19932;-72
2023/05/27 13:43:34;;;;;;;;;;;;;;;;;;4437633;32;19952;-71
2023/05/27 13:45:59;;;;;;;;;;;;;;;;;;4434996;32;20241;-71
2023/05/27 13:48:25;;;;;;;;;;;;;;;;;;4436169;32;20001;-71
2023/05/27 13:50:50;;;;;;;;;;;;;;;;;;4436276;32;20021;-71
2023/05/27 13:53:15;;;;;;;;;;;;;;;;;;4437575;32;20351;-71
2023/05/27 13:55:41;;;;;;;;;;;;;;;;;;4435796;32;19940;-72
2023/05/27 13:58:06;;;;;;;;;;;;;;;;;;4435361;32;20291;-72
2023/05/27 14:00:31;;;;;;;;;;;;;;;;;;4434232;32;20007;-70
2023/05/27 14:02:58;;;;;;;;;;;;;;;;;;4436919;32;19981;-72
2023/05/27 14:05:23;;;;;;;;;;;;;;;;;;4436006;32;19946;-72
2023/05/27 14:07:48;;;;;;;;;;;;;;;;;;4434417;32;19937;-72
2023/05/27 14:10:13;;;;;;;;;;;;;;;;;;4436807;32;19937;-73
2023/05/27 14:12:39;;;;;;;;;;;;;;;;;;4435703;32;20012;-72
2023/05/27 14:15:04;;;;;;;;;;;;;;;;;;4437049;32;19980;-73
2023/05/27 14:17:29;;;;;;;;;;;;;;;;;;4435025;32;19947;-72
2023/05/27 14:19:54;;;;;;;;;;;;;;;;;;4434586;32;19966;-72
2023/05/27 14:22:19;;;;;;;;;;;;;;;;;;4436115;32;19963;-72
2023/05/27 14:24:45;;;;;;;;;;;;;;;;;;4437281;32;19982;-73
2023/05/27 14:27:10;;;;;;;;;;;;;;;;;;4435545;32;19948;-72
2023/05/27 14:29:35;;;;;;;;;;;;;;;;;;4436540;32;19972;-72
2023/05/27 14:32:01;;;;;;;;;;;;;;;;;;4436834;32;20219;-71
2023/05/27 14:34:26;;;;;;;;;;;;;;;;;;4434225;32;20314;-72
2023/05/27 14:36:51;;;;;;;;;;;;;;;;;;4436792;32;19936;-72
2023/05/27 14:39:16;;;;;;;;;;;;;;;;;;4435372;32;19936;-72
2023/05/27 14:41:41;;;;;;;;;;;;;;;;;;4434785;32;19960;-73
2023/05/27 14:44:06;;;;;;;;;;;;;;;;;;4435899;32;20372;-72
2023/05/27 14:46:31;;;;;;;;;;;;;;;;;;4436838;32;19970;-72
2023/05/27 14:48:56;;;;;;;;;;;;;;;;;;4435895;32;19933;-73
2023/05/27 14:51:22;;;;;;;;;;;;;;;;;;4435307;32;19990;-73
2023/05/27 14:53:47;;;;;;;;;;;;;;;;;;4435598;32;20290;-72
2023/05/27 14:56:12;;;;;;;;;;;;;;;;;;4435594;32;19988;-72
2023/05/27 14:58:38;;;;;;;;;;;;;;;;;;4436500;32;19932;-72
2023/05/27 15:01:04;;;;;;;;;;;;;;;;;;4435742;32;19948;-71
2023/05/27 15:03:30;;;;;;;;;;;;;;;;;;4435828;32;19937;-72
2023/05/27 15:05:57;;;;;;;;;;;;;;;;;;4435497;32;19994;-71
2023/05/27 15:08:22;;;;;;;;;;;;;;;;;;4434999;32;19949;-73
2023/05/27 15:10:48;;;;;;;;;;;;;;;;;;4433019;32;19975;-72
2023/05/27 15:13:13;;;;;;;;;;;;;;;;;;4434472;32;19941;-72
2023/05/27 15:15:43;;;;;;;;;;;;;;;;;;4435080;32;19932;-71
2023/05/27 15:18:08;;;;;;;;;;;;;;;;;;4432616;32;19937;-72
2023/05/27 15:20:33;;;;;;;;;;;;;;;;;;4432784;32;20002;-71
2023/05/27 15:22:58;;;;;;;;;;;;;;;;;;4434631;32;20028;-72
2023/05/27 15:25:23;;;;;;;;;;;;;;;;;;4434519;32;19941;-73
2023/05/27 15:27:49;;;;;;;;;;;;;;;;;;4432056;32;20331;-73
2023/05/27 15:30:14;;;;;;;;;;;;;;;;;;4433772;32;19979;-72
2023/05/27 15:32:39;;;;;;;;;;;;;;;;;;4434345;32;19929;-72
2023/05/27 15:35:05;;;;;;;;;;;;;;;;;;4433078;32;20000;-72
2023/05/27 15:37:30;;;;;;;;;;;;;;;;;;4433945;32;19933;-72
2023/05/27 15:39:55;;;;;;;;;;;;;;;;;;4434500;32;20023;-72
2023/05/27 15:42:20;;;;;;;;;;;;;;;;;;4434729;32;19948;-72
2023/05/27 15:44:45;;;;;;;;;;;;;;;;;;4434713;32;19977;-71
2023/05/27 15:47:10;;;;;;;;;;;;;;;;;;4435584;32;19933;-72
2023/05/27 15:49:35;;;;;;;;;;;;;;;;;;4434637;32;19949;-72
2023/05/27 15:52:00;;;;;;;;;;;;;;;;;;4433677;32;19941;-71
2023/05/27 15:54:26;;;;;;;;;;;;;;;;;;4436544;32;20055;-73
2023/05/27 15:56:51;;;;;;;;;;;;;;;;;;4435453;32;19952;-73
2023/05/27 15:59:16;;;;;;;;;;;;;;;;;;4438355;32;20338;-72
2023/05/27 16:01:41;;;;;;;;;;;;;;;;;;4436367;32;20432;-73
2023/05/27 16:04:06;;;;;;;;;;;;;;;;;;4437854;32;19989;-72
2023/05/27 16:06:32;;;;;;;;;;;;;;;;;;4438865;32;20332;-73
2023/05/27 16:08:57;;;;;;;;;;;;;;;;;;4435769;32;19981;-73
2023/05/27 16:11:22;;;;;;;;;;;;;;;;;;4436006;32;19944;-73
2023/05/27 16:13:47;;;;;;;;;;;;;;;;;;4437202;32;19976;-73
2023/05/27 16:16:12;;;;;;;;;;;;;;;;;;4436256;32;19937;-72
2023/05/27 16:18:37;;;;;;;;;;;;;;;;;;4438202;32;19956;-72
2023/05/27 16:21:03;;;;;;;;;;;;;;;;;;4437353;32;19937;-72
2023/05/27 16:23:28;;;;;;;;;;;;;;;;;;4436096;32;20359;-72
2023/05/27 16:25:53;;;;;;;;;;;;;;;;;;4438416;32;19933;-72
2023/05/27 16:28:18;;;;;;;;;;;;;;;;;;4437551;32;20222;-73
2023/05/27 16:30:43;;;;;;;;;;;;;;;;;;4437465;32;19932;-73
2023/05/27 16:33:09;;;;;;;;;;;;;;;;;;4436254;32;20052;-72